createdAt,value
2019-05-21T00:02:47.173Z,49.04
2019-05-21T00:07:50.962Z,48.74
2019-05-21T00:12:54.772Z,48.74
2019-05-21T00:17:58.694Z,49.17
2019-05-21T00:23:02.493Z,49.17
2019-05-21T00:28:42.643Z,49.18
2019-05-21T00:34:22.448Z,49.63
2019-05-21T00:40:02.761Z,49.43
2019-05-21T00:45:08.561Z,49.73
2019-05-21T00:50:12.352Z,49.75
2019-05-21T00:55:16.122Z,49.97
2019-05-21T01:00:19.905Z,49.97
2019-05-21T01:05:23.685Z,49.64
2019-05-21T01:10:27.447Z,49.64
2019-05-21T01:15:31.207Z,49.82
2019-05-21T01:20:34.970Z,49.97
2019-05-21T01:25:38.744Z,50.64
2019-05-21T01:30:42.507Z,50.47
2019-05-21T01:35:46.288Z,50.43
2019-05-21T01:40:50.089Z,50.43
2019-05-21T01:45:53.879Z,50.58
2019-05-21T01:50:57.681Z,50.86
2019-05-21T01:56:01.467Z,50.91
2019-05-21T02:01:05.296Z,50.66
2019-05-21T02:06:09.432Z,50.66
2019-05-21T02:11:13.246Z,50.77
2019-05-21T02:16:17.041Z,50.91
2019-05-21T02:21:20.817Z,50.94
2019-05-21T02:26:24.613Z,50.88
2019-05-21T02:31:28.420Z,50.63
2019-05-21T02:36:32.204Z,50.63
2019-05-21T02:41:35.988Z,51.07
2019-05-21T02:46:39.802Z,50.93
2019-05-21T02:51:43.599Z,50.84
2019-05-21T02:56:47.386Z,51.17
2019-05-21T03:01:57.855Z,51.17
2019-05-21T03:07:20.233Z,50.80
2019-05-21T03:12:24.036Z,50.78
2019-05-21T03:17:27.848Z,50.70
2019-05-21T03:22:31.608Z,50.70
2019-05-21T03:27:35.423Z,50.85
2019-05-21T03:32:39.243Z,50.66
2019-05-21T03:37:43.059Z,50.61
2019-05-21T03:42:46.915Z,51.06
2019-05-21T03:47:50.717Z,51.55
2019-05-21T03:52:54.493Z,50.47
2019-05-21T03:57:58.300Z,50.51
2019-05-21T04:03:02.099Z,50.51
2019-05-21T04:08:06.031Z,50.26
2019-05-21T04:13:09.940Z,50.00
2019-05-21T04:18:19.173Z,49.47
2019-05-21T04:23:22.955Z,48.95
2019-05-21T04:28:26.783Z,48.46
2019-05-21T04:33:30.591Z,49.08
2019-05-21T04:38:34.374Z,48.54
2019-05-21T04:43:38.143Z,48.65
2019-05-21T04:48:41.933Z,48.22
2019-05-21T04:53:45.858Z,47.74
2019-05-21T04:58:49.738Z,47.74
2019-05-21T05:03:53.730Z,48.03
2019-05-21T05:08:57.534Z,47.76
2019-05-21T05:14:01.370Z,47.61
2019-05-21T05:19:05.284Z,47.61
2019-05-21T05:24:09.157Z,48.20
2019-05-21T05:29:12.946Z,48.20
2019-05-21T05:34:16.795Z,47.69
2019-05-21T05:39:20.579Z,47.61
2019-05-21T05:44:24.540Z,47.21
2019-05-21T05:49:33.499Z,47.21
2019-05-21T05:54:37.324Z,47.55
2019-05-21T05:59:41.145Z,47.27
2019-05-21T06:04:44.963Z,47.17
2019-05-21T06:09:48.782Z,47.49
2019-05-21T06:14:52.592Z,47.74
2019-05-21T06:19:56.373Z,47.66
2019-05-21T06:25:00.160Z,47.69
2019-05-21T06:30:04.161Z,47.23
2019-05-21T06:35:07.941Z,47.82
2019-05-21T06:40:11.727Z,47.82
2019-05-21T06:45:15.592Z,47.12
2019-05-21T06:50:19.374Z,48.60
2019-05-21T06:55:23.256Z,48.60
2019-05-21T07:00:27.171Z,53.39
2019-05-21T07:05:30.939Z,54.33
2019-05-21T07:10:34.720Z,55.45
2019-05-21T07:15:38.525Z,55.36
2019-05-21T07:20:42.298Z,54.16
2019-05-21T07:25:46.072Z,51.19
2019-05-21T07:30:49.965Z,49.97
2019-05-21T07:35:53.741Z,49.86
2019-05-21T07:40:57.538Z,49.55
2019-05-21T07:46:01.310Z,49.83
2019-05-21T07:51:05.132Z,49.34
2019-05-21T07:56:08.906Z,49.24
2019-05-21T08:01:12.740Z,49.63
2019-05-21T08:06:16.522Z,49.46
2019-05-21T08:11:20.321Z,49.35
2019-05-21T08:16:24.091Z,49.25
2019-05-21T08:21:27.979Z,49.50
2019-05-21T08:26:31.780Z,48.72
2019-05-21T08:31:35.687Z,48.76
2019-05-21T08:36:39.526Z,49.21
2019-05-21T08:41:43.317Z,48.71
2019-05-21T08:46:47.346Z,48.30
2019-05-21T08:51:51.120Z,48.30
2019-05-21T08:56:54.889Z,48.80
2019-05-21T09:01:59.279Z,48.80
2019-05-21T09:07:03.170Z,50.88
2019-05-21T09:12:06.964Z,50.98
2019-05-21T09:17:10.749Z,50.98
2019-05-21T09:22:14.638Z,51.72
2019-05-21T09:27:18.450Z,50.57
2019-05-21T09:32:22.266Z,52.08
2019-05-21T09:37:26.046Z,50.21
2019-05-21T09:42:29.859Z,50.21
2019-05-21T09:47:33.714Z,50.97
2019-05-21T09:52:37.475Z,49.57
2019-05-21T09:58:12.623Z,48.63
2019-05-21T10:03:18.186Z,49.35
2019-05-21T10:08:21.970Z,49.54
2019-05-21T10:13:25.743Z,49.28
2019-05-21T10:18:29.657Z,48.89
2019-05-21T10:23:33.426Z,49.31
2019-05-21T10:28:37.307Z,48.22
2019-05-21T10:33:41.082Z,46.71
2019-05-21T10:38:44.884Z,47.93
2019-05-21T10:43:48.714Z,47.97
2019-05-21T10:48:52.594Z,47.62
2019-05-21T10:53:56.367Z,47.62
2019-05-21T10:59:00.133Z,47.55
2019-05-21T11:04:29.118Z,49.54
2019-05-21T11:09:33.402Z,48.26
2019-05-21T11:14:37.561Z,46.85
2019-05-21T11:19:41.541Z,46.69
2019-05-21T11:24:45.324Z,46.15
2019-05-21T11:29:49.182Z,46.15
2019-05-21T11:34:53.037Z,46.17
2019-05-21T11:39:56.831Z,46.36
2019-05-21T11:45:00.619Z,46.36
2019-05-21T11:50:04.882Z,45.82
2019-05-21T11:55:08.736Z,45.59
2019-05-21T12:00:12.817Z,45.50
2019-05-21T12:05:16.826Z,45.50
2019-05-21T12:10:20.700Z,45.41
2019-05-21T12:15:24.519Z,45.41
2019-05-21T12:20:36.677Z,45.54
2019-05-21T12:25:33.783Z,45.27
2019-05-21T12:30:37.631Z,45.56
2019-05-21T12:35:41.419Z,45.56
2019-05-21T12:40:45.199Z,45.74
2019-05-21T12:45:49.097Z,46.01
2019-05-21T12:50:52.931Z,45.88
2019-05-21T12:55:56.796Z,45.88
2019-05-21T13:01:00.583Z,46.12
2019-05-21T13:06:04.460Z,45.73
2019-05-21T13:11:08.254Z,45.89
2019-05-21T13:16:12.018Z,45.76
2019-05-21T13:21:15.791Z,45.76
2019-05-21T13:26:19.617Z,46.10
2019-05-21T13:31:23.450Z,46.13
2019-05-21T13:36:27.219Z,46.52
2019-05-21T13:41:31.038Z,46.36
2019-05-21T13:46:35.737Z,46.53
2019-05-21T13:51:39.735Z,46.53
2019-05-21T13:56:43.507Z,46.21
2019-05-21T14:01:47.329Z,46.26
2019-05-21T14:06:51.117Z,46.55
2019-05-21T14:11:54.970Z,46.58
2019-05-21T14:16:58.742Z,46.58
2019-05-21T14:22:02.659Z,46.03
2019-05-21T14:27:06.687Z,46.61
2019-05-21T14:32:10.614Z,46.56
2019-05-21T14:37:14.404Z,46.78
2019-05-21T14:42:18.175Z,46.78
2019-05-21T14:47:21.965Z,47.37
2019-05-21T14:52:25.757Z,47.02
2019-05-21T14:57:29.522Z,46.96
2019-05-21T15:02:36.934Z,47.29
2019-05-21T15:07:38.902Z,47.45
2019-05-21T15:12:42.785Z,47.04
2019-05-21T15:17:46.558Z,47.59
2019-05-21T15:22:50.592Z,47.13
2019-05-21T15:27:54.376Z,47.13
2019-05-21T15:32:58.145Z,47.24
2019-05-21T15:38:01.917Z,46.95
2019-05-21T15:43:07.264Z,47.54
2019-05-21T15:48:11.037Z,47.29
2019-05-21T15:53:14.896Z,47.09
2019-05-21T15:58:18.733Z,47.74
2019-05-21T16:03:22.586Z,47.33
2019-05-21T16:08:26.404Z,47.30
2019-05-21T16:13:30.212Z,47.30
2019-05-21T16:18:33.985Z,48.25
2019-05-21T16:23:37.751Z,48.10
2019-05-21T16:28:41.519Z,48.10
2019-05-21T16:33:45.406Z,49.71
2019-05-21T16:38:49.265Z,49.71
2019-05-21T16:43:53.180Z,49.21
2019-05-21T16:48:57.117Z,48.91
2019-05-21T16:54:01.209Z,48.51
2019-05-21T16:59:05.013Z,48.51
2019-05-21T17:04:08.878Z,48.55
2019-05-21T17:09:13.415Z,48.26
2019-05-21T17:14:17.254Z,48.26
2019-05-21T17:19:21.086Z,49.14
2019-05-21T17:24:25.017Z,48.63
2019-05-21T17:29:28.790Z,49.22
2019-05-21T17:34:32.584Z,49.22
2019-05-21T17:39:36.383Z,49.91
2019-05-21T17:44:40.243Z,49.91
2019-05-21T17:49:44.017Z,49.92
2019-05-21T17:54:56.929Z,49.81
2019-05-21T17:59:53.301Z,49.46
2019-05-21T18:04:58.168Z,50.84
2019-05-21T18:10:02.050Z,50.84
2019-05-21T18:15:07.811Z,50.55
2019-05-21T18:20:11.833Z,50.76
2019-05-21T18:25:15.810Z,51.02
2019-05-21T18:30:19.993Z,50.61
2019-05-21T18:35:23.766Z,50.51
2019-05-21T18:40:27.623Z,50.65
2019-05-21T18:45:31.388Z,50.74
2019-05-21T18:50:37.012Z,50.09
2019-05-21T18:55:40.755Z,50.79
2019-05-21T19:00:44.620Z,50.79
2019-05-21T19:05:48.407Z,50.30
2019-05-21T19:10:52.203Z,49.99
2019-05-21T19:15:55.978Z,49.46
2019-05-21T19:20:59.761Z,49.68
2019-05-21T19:26:03.526Z,49.68
2019-05-21T19:31:08.937Z,49.22
2019-05-21T19:36:13.029Z,49.00
2019-05-21T19:41:16.929Z,49.80
2019-05-21T19:46:20.737Z,49.81
2019-05-21T19:51:24.540Z,49.81
2019-05-21T19:56:28.287Z,49.58
2019-05-21T20:01:32.073Z,49.58
2019-05-21T20:06:35.954Z,49.87
2019-05-21T20:11:39.725Z,49.72
2019-05-21T20:16:43.564Z,49.72
2019-05-21T20:21:47.387Z,49.01
2019-05-21T20:26:51.627Z,49.01
2019-05-21T20:31:55.563Z,49.81
2019-05-21T20:36:59.815Z,49.55
2019-05-21T20:42:05.393Z,49.64
2019-05-21T20:47:10.887Z,49.42
2019-05-21T20:52:18.533Z,49.61
2019-05-21T20:57:20.555Z,49.61
2019-05-21T21:02:24.406Z,49.64
2019-05-21T21:07:28.187Z,49.64
2019-05-21T21:12:32.261Z,49.39
2019-05-21T21:17:36.046Z,49.31
2019-05-21T21:22:39.906Z,49.25
2019-05-21T21:27:43.682Z,49.35
2019-05-21T21:32:47.672Z,49.22
2019-05-21T21:37:51.514Z,49.22
2019-05-21T21:42:55.365Z,49.36
2019-05-21T21:47:59.187Z,49.36
2019-05-21T21:53:03.139Z,49.39
2019-05-21T21:58:06.896Z,50.02
2019-05-21T22:03:10.828Z,50.02
2019-05-21T22:08:14.656Z,50.20
2019-05-21T22:13:18.880Z,50.20
2019-05-21T22:18:24.143Z,50.12
2019-05-21T22:23:27.957Z,50.19
2019-05-21T22:28:31.830Z,49.93
2019-05-21T22:33:36.768Z,49.93
2019-05-21T22:38:41.543Z,50.61
2019-05-21T22:43:45.407Z,50.37
2019-05-21T22:48:49.332Z,50.37
2019-05-21T22:53:53.103Z,50.23
2019-05-21T22:58:56.916Z,50.23
2019-05-21T23:04:00.962Z,50.81
2019-05-21T23:09:06.063Z,50.60
2019-05-21T23:14:09.838Z,50.69
2019-05-21T23:19:15.295Z,50.43
2019-05-21T23:24:21.497Z,50.36
2019-05-21T23:29:25.789Z,50.36
2019-05-21T23:34:29.549Z,50.53
2019-05-21T23:39:34.814Z,50.55
2019-05-21T23:44:38.617Z,50.81
2019-05-21T23:49:42.516Z,50.54
2019-05-21T23:54:46.292Z,50.76
2019-05-21T23:59:50.741Z,50.76
